KLXL

Details ICAO KLXL
Name LITTLE FALLS MORRISON CO
Region United States
Timezone America/Chicago (UTC-5.0)
Plans Departing 1
Arriving 0
Stats Elevation 1,122 ft / 342 m (AMSL)
Location 45.949234° -94.346098°
Runways 2
Magnetic Variation 0.968° E
Sunrise 2018-05-24 10:37:35 UTC / 2018-05-24 05:37:35 Local
Sunset 2018-05-25 01:53:46 UTC / 2018-05-24 20:53:46 Local
Advertisement - Login to hide

Runways

ID Width Length Bearing (true) Bearing (mag) Surface Threshold Offset Overrun Length
13 75 ft / 23 m 3,995 ft / 1,218 m 130.73° 129.76° Asphalt 0 ft / 0 m 0 ft / 0 m
18 170 ft / 52 m 3,041 ft / 927 m 181.32° 180.35° Grass 203 ft / 62 m 0 ft / 0 m
31 75 ft / 23 m 3,995 ft / 1,218 m 310.74° 309.77° Asphalt 0 ft / 0 m 0 ft / 0 m
36 170 ft / 52 m 3,041 ft / 927 m 1.31° 0.34° Grass 0 ft / 0 m 0 ft / 0 m

Map

Weather


0- 5 10 15 20 25 30 35+ Temperature / ° C

Clouds and Precipitation
Forecast for 2018-05-25 00:00 UTC. Updated 44 minutes ago

Ground ~20,000 ft ~40,000 ft Winds

METAR

KLXL 242355Z AUTO 18009G14KT 10SM CLR 30/18 A2983 RMK AO2 LTG DSNT SE

TAF

Not found

Frequencies

Unicom 122.80 MHz CTAF/UNICOM
Warning: Do not use this data for real-world aviation or navigation. No guarantee of current accuracy is given.